createdAt,value
2018-08-23T00:00:29.372Z,75.90
2018-08-23T00:02:57.150Z,76.40
2018-08-23T00:05:24.835Z,75.70
2018-08-23T00:07:58.105Z,75.60
2018-08-23T00:10:25.803Z,75.80
2018-08-23T00:12:59.043Z,75.90
2018-08-23T00:15:31.579Z,76.00
2018-08-23T00:17:59.254Z,75.80
2018-08-23T00:20:26.956Z,75.70
2018-08-23T00:22:54.630Z,75.70
2018-08-23T00:25:22.332Z,75.90
2018-08-23T00:27:50.001Z,76.10
2018-08-23T00:30:18.504Z,76.00
2018-08-23T00:32:47.068Z,76.70
2018-08-23T00:35:19.663Z,76.00
2018-08-23T00:37:48.436Z,75.80
2018-08-23T00:40:18.132Z,75.70
2018-08-23T00:43:19.181Z,76.00
2018-08-23T00:45:47.673Z,76.30
2018-08-23T00:48:15.983Z,76.20
2018-08-23T00:50:47.081Z,76.00
2018-08-23T00:53:15.049Z,76.00
2018-08-23T00:55:44.006Z,76.00
2018-08-23T00:58:11.676Z,76.00
2018-08-23T01:00:40.602Z,75.90
2018-08-23T01:03:08.270Z,76.10
2018-08-23T01:05:36.941Z,76.00
2018-08-23T01:08:05.748Z,75.90
2018-08-23T01:10:33.420Z,75.80
2018-08-23T01:13:01.950Z,75.90
2018-08-23T01:15:30.361Z,76.00
2018-08-23T01:18:07.156Z,75.90
2018-08-23T01:20:35.848Z,75.90
2018-08-23T01:23:04.629Z,76.50
2018-08-23T01:25:39.047Z,75.90
2018-08-23T01:28:08.048Z,75.90
2018-08-23T01:30:37.001Z,75.70
2018-08-23T01:33:07.731Z,75.70
2018-08-23T01:35:36.300Z,75.70
2018-08-23T01:38:04.865Z,75.60
2018-08-23T01:40:33.548Z,75.70
2018-08-23T01:43:02.251Z,75.90
2018-08-23T01:45:30.965Z,75.80
2018-08-23T01:47:58.676Z,75.60
2018-08-23T01:50:26.674Z,75.60
2018-08-23T01:52:55.515Z,75.60
2018-08-23T01:55:24.912Z,75.70
2018-08-23T01:57:52.771Z,75.60
2018-08-23T02:00:26.542Z,75.70
2018-08-23T02:02:54.206Z,75.70
2018-08-23T02:05:22.859Z,75.60
2018-08-23T02:07:51.608Z,75.80
2018-08-23T02:10:20.181Z,75.80
2018-08-23T02:12:50.599Z,75.70
2018-08-23T02:15:19.411Z,75.60
2018-08-23T02:17:54.892Z,75.60
2018-08-23T02:20:24.423Z,75.60
2018-08-23T02:22:53.743Z,75.70
2018-08-23T02:25:22.316Z,75.50
2018-08-23T02:27:57.745Z,75.60
2018-08-23T02:30:35.439Z,76.30
2018-08-23T02:33:03.120Z,75.50
2018-08-23T02:35:31.731Z,75.50
2018-08-23T02:38:00.434Z,75.50
2018-08-23T02:40:29.140Z,75.50
2018-08-23T02:42:57.816Z,75.60
2018-08-23T02:45:31.208Z,75.70
2018-08-23T02:48:00.208Z,75.50
2018-08-23T02:50:28.912Z,75.50
2018-08-23T02:53:01.934Z,75.40
2018-08-23T02:55:33.657Z,75.50
2018-08-23T02:58:02.337Z,75.40
2018-08-23T03:00:44.848Z,75.40
2018-08-23T03:03:14.907Z,75.40
2018-08-23T03:05:44.165Z,75.40
2018-08-23T03:08:13.968Z,75.60
2018-08-23T03:10:43.740Z,75.60
2018-08-23T03:13:13.546Z,75.50
2018-08-23T03:15:43.398Z,75.50
2018-08-23T03:18:13.004Z,75.40
2018-08-23T03:20:40.933Z,75.40
2018-08-23T03:23:09.532Z,75.90
2018-08-23T03:25:38.269Z,75.20
2018-08-23T03:28:06.959Z,75.00
2018-08-23T03:30:34.665Z,74.90
2018-08-23T03:33:03.340Z,75.00
2018-08-23T03:35:32.060Z,74.90
2018-08-23T03:38:00.740Z,74.80
2018-08-23T03:40:29.435Z,75.00
2018-08-23T03:42:57.989Z,75.00
2018-08-23T03:45:29.752Z,75.80
2018-08-23T03:47:57.428Z,75.10
2018-08-23T03:50:25.095Z,74.90
2018-08-23T03:52:54.786Z,75.10
2018-08-23T03:55:23.919Z,75.30
2018-08-23T03:57:52.741Z,75.50
2018-08-23T04:00:26.347Z,75.20
2018-08-23T04:02:54.347Z,75.30
2018-08-23T04:05:22.008Z,75.00
2018-08-23T04:07:50.741Z,74.70
2018-08-23T04:10:19.448Z,74.60
2018-08-23T04:12:48.146Z,74.30
2018-08-23T04:15:19.030Z,74.10
2018-08-23T04:17:47.570Z,73.90
2018-08-23T04:20:17.378Z,73.90
2018-08-23T04:22:46.131Z,73.80
2018-08-23T04:25:14.852Z,73.70
2018-08-23T04:27:43.603Z,73.70
2018-08-23T04:30:12.333Z,73.80
2018-08-23T04:32:48.791Z,73.80
2018-08-23T04:35:27.480Z,73.90
2018-08-23T04:37:55.155Z,73.80
2018-08-23T04:40:23.859Z,73.90
2018-08-23T04:42:51.531Z,73.90
2018-08-23T04:45:25.212Z,73.90
2018-08-23T04:47:59.525Z,73.90
2018-08-23T04:50:28.076Z,73.90
2018-08-23T04:52:55.786Z,74.00
2018-08-23T04:55:25.112Z,74.00
2018-08-23T04:57:53.866Z,74.10
2018-08-23T05:00:22.412Z,74.10
2018-08-23T05:02:51.158Z,74.10
2018-08-23T05:05:19.827Z,74.10
2018-08-23T05:07:48.388Z,74.20
2018-08-23T05:10:18.062Z,74.20
2018-08-23T05:12:47.943Z,74.20
2018-08-23T05:15:16.150Z,74.20
2018-08-23T05:17:44.819Z,74.20
2018-08-23T05:20:14.076Z,74.20
2018-08-23T05:22:50.476Z,74.20
2018-08-23T05:25:18.184Z,74.20
2018-08-23T05:27:55.770Z,74.30
2018-08-23T05:30:23.855Z,74.30
2018-08-23T05:32:52.652Z,74.30
2018-08-23T05:35:20.572Z,74.30
2018-08-23T05:37:49.256Z,74.40
2018-08-23T05:40:16.992Z,74.30
2018-08-23T05:42:51.104Z,74.30
2018-08-23T05:45:19.315Z,74.20
2018-08-23T05:47:48.144Z,74.30
2018-08-23T05:50:19.089Z,74.20
2018-08-23T05:52:50.206Z,74.10
2018-08-23T05:55:18.888Z,74.10
2018-08-23T05:57:47.572Z,74.00
2018-08-23T06:00:18.315Z,74.30
2018-08-23T06:02:48.120Z,74.00
2018-08-23T06:05:17.695Z,74.20
2018-08-23T06:07:47.751Z,74.00
2018-08-23T06:10:15.432Z,74.00
2018-08-23T06:12:44.933Z,74.10
2018-08-23T06:15:14.717Z,74.00
2018-08-23T06:17:44.356Z,74.10
2018-08-23T06:20:13.965Z,74.30
2018-08-23T06:22:43.619Z,74.30
2018-08-23T06:25:13.189Z,74.30
2018-08-23T06:27:40.869Z,74.20
2018-08-23T06:30:09.428Z,74.10
2018-08-23T06:32:38.140Z,74.30
2018-08-23T06:35:05.856Z,74.40
2018-08-23T06:37:34.148Z,74.50
2018-08-23T06:40:01.801Z,74.50
2018-08-23T06:42:39.520Z,74.60
2018-08-23T06:45:07.343Z,74.70
2018-08-23T06:47:35.104Z,74.70
2018-08-23T06:50:02.780Z,74.60
2018-08-23T06:52:36.188Z,74.90
2018-08-23T06:55:04.916Z,74.90
2018-08-23T06:57:39.002Z,74.80
2018-08-23T07:00:07.722Z,74.80
2018-08-23T07:02:35.400Z,74.90
2018-08-23T07:05:04.080Z,74.90
2018-08-23T07:07:32.793Z,74.90
2018-08-23T07:10:01.472Z,75.00
2018-08-23T07:12:29.148Z,74.90
2018-08-23T07:14:56.825Z,75.00
2018-08-23T07:17:26.965Z,75.10
2018-08-23T07:19:54.665Z,75.20
2018-08-23T07:22:24.655Z,75.30
2018-08-23T07:24:53.627Z,75.80
2018-08-23T07:27:22.079Z,75.20
2018-08-23T07:29:50.409Z,75.20
2018-08-23T07:32:19.315Z,75.30
2018-08-23T07:34:49.956Z,76.10
2018-08-23T07:37:19.397Z,75.30
2018-08-23T07:39:55.210Z,75.20
2018-08-23T07:42:23.088Z,75.30
2018-08-23T07:44:50.779Z,75.40
2018-08-23T07:47:18.472Z,75.40
2018-08-23T07:49:47.068Z,75.40
2018-08-23T07:52:15.153Z,75.50
2018-08-23T07:54:43.724Z,75.40
2018-08-23T07:57:11.408Z,76.40
2018-08-23T07:59:39.096Z,75.50
2018-08-23T08:02:09.484Z,75.50
2018-08-23T08:04:37.147Z,75.80
2018-08-23T08:07:07.412Z,75.70
2018-08-23T08:09:35.089Z,76.00
2018-08-23T08:12:02.760Z,75.70
2018-08-23T08:14:37.564Z,75.80
2018-08-23T08:17:08.932Z,75.70
2018-08-23T08:19:36.908Z,75.80
2018-08-23T08:22:04.574Z,75.90
2018-08-23T08:24:32.235Z,75.80
2018-08-23T08:26:59.926Z,75.80
2018-08-23T08:29:33.149Z,76.00
2018-08-23T08:32:00.820Z,75.90
2018-08-23T08:34:28.485Z,76.00
2018-08-23T08:36:56.469Z,76.00
2018-08-23T08:39:24.140Z,75.80
2018-08-23T08:41:51.812Z,75.80
2018-08-23T08:44:19.485Z,75.80
2018-08-23T08:46:48.671Z,75.80
2018-08-23T08:49:17.720Z,76.50
2018-08-23T08:51:45.392Z,75.90
2018-08-23T08:54:13.977Z,76.40
2018-08-23T08:56:46.428Z,75.80
2018-08-23T08:59:15.005Z,76.50
2018-08-23T09:01:43.621Z,75.90
2018-08-23T09:04:16.395Z,76.00
2018-08-23T09:06:46.295Z,75.90
2018-08-23T09:09:29.412Z,75.90
2018-08-23T09:11:58.077Z,76.00
2018-08-23T09:14:25.748Z,76.00
2018-08-23T09:16:53.640Z,76.80
2018-08-23T09:19:21.316Z,76.00
2018-08-23T09:21:54.592Z,76.00
2018-08-23T09:24:26.145Z,75.90
2018-08-23T09:26:54.933Z,75.90
2018-08-23T09:29:29.488Z,76.00
2018-08-23T09:32:03.223Z,75.90
2018-08-23T09:34:31.947Z,75.90
2018-08-23T09:37:00.627Z,76.00
2018-08-23T09:39:29.301Z,76.00
2018-08-23T09:41:57.992Z,75.80
2018-08-23T09:44:26.682Z,75.90
2018-08-23T09:46:59.209Z,75.70
2018-08-23T09:49:27.743Z,75.70
2018-08-23T09:51:56.426Z,75.70
2018-08-23T09:54:28.896Z,75.80
2018-08-23T09:56:57.536Z,75.50
2018-08-23T09:59:26.036Z,75.70
2018-08-23T10:01:59.273Z,75.70
2018-08-23T10:04:32.435Z,75.80
2018-08-23T10:07:05.556Z,75.30
2018-08-23T10:09:38.670Z,75.40
2018-08-23T10:12:11.688Z,75.60
2018-08-23T10:14:44.750Z,75.50
2018-08-23T10:17:17.797Z,75.60
2018-08-23T10:19:50.904Z,75.60
2018-08-23T10:22:23.992Z,75.50
2018-08-23T10:24:51.667Z,75.60
2018-08-23T10:27:19.348Z,75.60
2018-08-23T10:29:48.064Z,75.70
2018-08-23T10:32:16.545Z,75.70
2018-08-23T10:34:45.358Z,75.70
2018-08-23T10:37:14.263Z,75.60
2018-08-23T10:39:41.932Z,75.60
2018-08-23T10:42:17.152Z,75.50
2018-08-23T10:44:44.882Z,75.40
2018-08-23T10:47:16.852Z,75.70
2018-08-23T10:49:48.145Z,75.60
2018-08-23T10:52:16.610Z,75.60
2018-08-23T10:54:44.828Z,75.70
2018-08-23T10:57:16.825Z,75.70
2018-08-23T10:59:46.848Z,75.80
2018-08-23T11:02:15.336Z,76.40
2018-08-23T11:04:44.757Z,75.50
2018-08-23T11:07:13.128Z,75.60
2018-08-23T11:09:46.526Z,75.60
2018-08-23T11:12:21.025Z,75.60
2018-08-23T11:14:49.701Z,75.60
2018-08-23T11:17:24.877Z,75.70
2018-08-23T11:19:58.016Z,75.80
2018-08-23T11:22:29.990Z,75.70
2018-08-23T11:24:58.579Z,75.60
2018-08-23T11:27:26.290Z,75.60
2018-08-23T11:29:53.970Z,75.60
2018-08-23T11:32:21.717Z,75.60
2018-08-23T11:34:49.389Z,75.50
2018-08-23T11:37:17.407Z,75.40
2018-08-23T11:39:45.078Z,75.20
2018-08-23T11:42:13.748Z,75.00
2018-08-23T11:44:41.421Z,75.50
2018-08-23T11:47:09.079Z,75.60
2018-08-23T11:49:36.744Z,75.40
2018-08-23T11:52:04.413Z,75.30
2018-08-23T11:54:32.092Z,75.50
2018-08-23T11:56:59.771Z,75.50
2018-08-23T11:59:28.344Z,75.60
2018-08-23T12:01:57.052Z,75.50
2018-08-23T12:04:25.740Z,75.50
2018-08-23T12:06:56.238Z,75.40
2018-08-23T12:09:30.217Z,75.30
2018-08-23T12:11:58.895Z,75.50
2018-08-23T12:14:27.614Z,75.30
2018-08-23T12:16:56.373Z,75.60
2018-08-23T12:19:24.060Z,75.70
2018-08-23T12:21:52.728Z,75.70
2018-08-23T12:24:21.294Z,75.70
2018-08-23T12:26:49.993Z,75.20
2018-08-23T12:29:18.680Z,75.70
2018-08-23T12:31:47.995Z,75.80
2018-08-23T12:34:21.276Z,75.70
2018-08-23T12:36:55.308Z,76.50
2018-08-23T12:39:29.370Z,75.80
2018-08-23T12:42:03.323Z,75.80
2018-08-23T12:44:32.024Z,76.00
2018-08-23T12:47:03.732Z,76.00
2018-08-23T12:49:32.540Z,75.90
2018-08-23T12:52:01.174Z,76.00
2018-08-23T12:54:29.862Z,76.00
2018-08-23T12:56:58.533Z,76.00
2018-08-23T12:59:26.208Z,75.90
2018-08-23T13:01:54.921Z,76.00
2018-08-23T13:04:22.769Z,75.90
2018-08-23T13:06:51.304Z,75.90
2018-08-23T13:09:19.877Z,76.00
2018-08-23T13:11:48.481Z,76.00
2018-08-23T13:14:18.327Z,76.00
2018-08-23T13:16:47.328Z,76.10
2018-08-23T13:19:16.527Z,76.00
2018-08-23T13:21:48.267Z,76.00
2018-08-23T13:24:17.375Z,76.00
2018-08-23T13:26:46.424Z,76.10
2018-08-23T13:29:15.225Z,76.10
2018-08-23T13:31:44.552Z,76.10
2018-08-23T13:34:14.198Z,76.10
2018-08-23T13:36:43.891Z,76.10
2018-08-23T13:39:14.259Z,76.10
2018-08-23T13:41:44.046Z,76.30
2018-08-23T13:44:11.753Z,76.10
2018-08-23T13:46:39.420Z,76.10
2018-08-23T13:49:07.105Z,76.10
2018-08-23T13:51:34.781Z,76.00
2018-08-23T13:54:02.551Z,76.10
2018-08-23T13:56:30.148Z,76.10
2018-08-23T13:58:57.904Z,76.30
2018-08-23T14:01:27.029Z,76.30
2018-08-23T14:03:55.707Z,76.40
2018-08-23T14:06:23.534Z,76.30
2018-08-23T14:08:51.316Z,76.30
2018-08-23T14:11:18.991Z,76.20
2018-08-23T14:13:47.390Z,76.30
2018-08-23T14:16:15.060Z,76.30
2018-08-23T14:18:43.798Z,76.30
2018-08-23T14:21:11.464Z,76.30
2018-08-23T14:23:39.143Z,76.30
2018-08-23T14:26:07.172Z,76.30
2018-08-23T14:28:35.103Z,76.30
2018-08-23T14:31:03.681Z,76.30
2018-08-23T14:33:31.352Z,76.30
2018-08-23T14:35:59.768Z,76.40
2018-08-23T14:38:27.490Z,76.40
2018-08-23T14:40:55.184Z,76.40
2018-08-23T14:43:22.848Z,76.40
2018-08-23T14:45:50.528Z,76.40
2018-08-23T14:48:20.321Z,76.30
2018-08-23T14:50:53.424Z,76.30
2018-08-23T14:53:27.054Z,76.40
2018-08-23T14:56:00.397Z,76.40
2018-08-23T14:58:28.321Z,76.40
2018-08-23T15:00:56.219Z,76.40
2018-08-23T15:03:24.808Z,76.40
2018-08-23T15:05:52.481Z,76.40
2018-08-23T15:08:20.173Z,76.40
2018-08-23T15:10:49.051Z,76.40
2018-08-23T15:13:18.779Z,76.50
2018-08-23T15:15:50.379Z,76.40
2018-08-23T15:18:21.128Z,76.40
2018-08-23T15:20:50.392Z,76.40
2018-08-23T15:23:18.955Z,76.40
2018-08-23T15:25:48.652Z,76.40
2018-08-23T15:28:18.388Z,76.40
2018-08-23T15:30:46.726Z,76.40
2018-08-23T15:33:15.267Z,76.50
2018-08-23T15:35:44.760Z,76.50
2018-08-23T15:38:14.389Z,76.50
2018-08-23T15:40:42.100Z,76.50
2018-08-23T15:43:10.808Z,76.60
2018-08-23T15:45:38.487Z,76.60
2018-08-23T15:48:07.263Z,76.60
2018-08-23T15:50:35.931Z,76.60
2018-08-23T15:53:03.844Z,76.60
2018-08-23T15:55:32.712Z,76.50
2018-08-23T15:58:01.247Z,76.40
2018-08-23T16:00:34.264Z,76.50
2018-08-23T16:03:02.857Z,76.60
2018-08-23T16:05:31.537Z,76.70
2018-08-23T16:08:00.113Z,76.60
2018-08-23T16:10:28.792Z,76.60
2018-08-23T16:12:57.479Z,76.50
2018-08-23T16:15:25.737Z,76.60
2018-08-23T16:20:02.239Z,76.60
2018-08-23T16:22:29.912Z,76.60
2018-08-23T16:24:57.630Z,76.90
2018-08-23T16:27:25.280Z,77.00
2018-08-23T16:29:53.417Z,77.00
2018-08-23T16:32:27.338Z,76.90
2018-08-23T16:34:55.144Z,76.80
2018-08-23T16:37:23.924Z,76.80
2018-08-23T16:39:52.585Z,76.70
2018-08-23T16:42:21.275Z,76.60
2018-08-23T16:44:48.992Z,76.80
2018-08-23T16:47:18.436Z,76.70
2018-08-23T16:49:48.093Z,76.70
2018-08-23T16:52:17.610Z,76.80
2018-08-23T16:54:45.344Z,76.70
2018-08-23T16:57:15.078Z,76.60
2018-08-23T16:59:44.563Z,76.80
2018-08-23T17:02:14.212Z,76.80
2018-08-23T17:04:46.995Z,76.80
2018-08-23T17:07:17.496Z,76.80
2018-08-23T17:09:47.076Z,76.70
2018-08-23T17:12:15.737Z,76.70
2018-08-23T17:14:44.968Z,76.80
2018-08-23T17:17:18.214Z,76.80
2018-08-23T17:19:46.658Z,76.80
2018-08-23T17:22:16.576Z,76.80
2018-08-23T17:24:45.614Z,76.80
2018-08-23T17:27:14.523Z,76.60
2018-08-23T17:29:44.109Z,75.90
2018-08-23T17:32:11.772Z,76.10
2018-08-23T17:34:40.332Z,76.40
2018-08-23T17:37:08.009Z,76.40
2018-08-23T17:39:35.685Z,76.30
2018-08-23T17:42:04.232Z,76.40
2018-08-23T17:44:31.934Z,76.30
2018-08-23T17:47:01.065Z,76.00
2018-08-23T17:49:29.806Z,76.30
2018-08-23T17:51:58.516Z,75.60
2018-08-23T17:54:26.304Z,76.00
2018-08-23T17:56:53.993Z,75.80
2018-08-23T17:59:21.696Z,76.10
2018-08-23T18:01:50.257Z,75.60
2018-08-23T18:04:18.979Z,75.50
2018-08-23T18:06:48.744Z,76.40
2018-08-23T18:09:18.231Z,76.10
2018-08-23T18:11:47.692Z,76.10
2018-08-23T18:14:15.381Z,76.30
2018-08-23T18:17:03.068Z,76.40
2018-08-23T18:19:31.769Z,76.40
2018-08-23T18:22:00.444Z,76.50
2018-08-23T18:24:29.152Z,76.60
2018-08-23T18:26:57.847Z,76.60
2018-08-23T18:29:26.436Z,76.70
2018-08-23T18:31:54.165Z,76.70
2018-08-23T18:34:22.872Z,76.70
2018-08-23T18:36:51.571Z,76.70
2018-08-23T18:39:20.276Z,76.70
2018-08-23T18:41:48.980Z,76.70
2018-08-23T18:44:18.274Z,76.80
2018-08-23T18:46:47.704Z,76.80
2018-08-23T18:49:15.411Z,76.80
2018-08-23T18:51:45.044Z,76.80
2018-08-23T18:54:14.272Z,76.80
2018-08-23T18:56:45.531Z,76.90
2018-08-23T18:59:15.437Z,76.90
2018-08-23T19:01:45.141Z,76.90
2018-08-23T19:04:12.844Z,77.00
2018-08-23T19:06:40.538Z,77.00
2018-08-23T19:09:10.363Z,77.00
2018-08-23T19:11:39.067Z,77.00
2018-08-23T19:14:07.760Z,77.00
2018-08-23T19:16:41.014Z,77.00
2018-08-23T19:19:09.556Z,77.00
2018-08-23T19:21:37.509Z,77.10
2018-08-23T19:24:05.200Z,77.10
2018-08-23T19:26:32.885Z,77.10
2018-08-23T19:29:00.560Z,77.10
2018-08-23T19:31:28.289Z,77.10
2018-08-23T19:33:55.940Z,77.10
2018-08-23T19:36:23.621Z,77.10
2018-08-23T19:38:51.290Z,77.10
2018-08-23T19:41:18.948Z,77.10
2018-08-23T19:43:46.665Z,77.10
2018-08-23T19:46:20.832Z,77.00
2018-08-23T19:48:50.602Z,77.10
2018-08-23T19:51:19.185Z,77.10
2018-08-23T19:53:47.526Z,77.20
2018-08-23T19:56:15.248Z,77.20
2018-08-23T19:58:44.034Z,77.20
2018-08-23T20:01:11.703Z,77.20
2018-08-23T20:03:39.382Z,77.20
2018-08-23T20:06:07.048Z,77.10
2018-08-23T20:08:34.748Z,77.20
2018-08-23T20:11:02.558Z,77.20
2018-08-23T20:13:30.243Z,77.10
2018-08-23T20:15:58.919Z,77.20
2018-08-23T20:18:26.705Z,77.20
2018-08-23T20:20:54.372Z,77.20
2018-08-23T20:23:22.048Z,77.20
2018-08-23T20:25:49.722Z,77.20
2018-08-23T20:28:18.042Z,77.20
2018-08-23T20:30:46.772Z,77.20
2018-08-23T20:33:15.444Z,77.20
2018-08-23T20:35:44.195Z,77.20
2018-08-23T20:38:11.864Z,77.20
2018-08-23T20:40:39.531Z,77.20
2018-08-23T20:43:07.216Z,77.20
2018-08-23T20:45:34.917Z,77.20
2018-08-23T20:48:03.608Z,77.20
2018-08-23T20:50:31.267Z,77.20
2018-08-23T20:52:59.939Z,77.20
2018-08-23T20:55:28.475Z,77.20
2018-08-23T20:57:56.139Z,77.20
2018-08-23T21:00:25.789Z,77.20
2018-08-23T21:02:54.333Z,77.20
2018-08-23T21:05:22.928Z,77.20
2018-08-23T21:07:51.508Z,77.20
2018-08-23T21:10:20.196Z,77.30
2018-08-23T21:12:48.908Z,77.30
2018-08-23T21:15:19.024Z,77.30
2018-08-23T21:17:48.392Z,77.20
2018-08-23T21:20:17.844Z,77.20
2018-08-23T21:22:47.147Z,77.20
2018-08-23T21:25:17.278Z,77.30
2018-08-23T21:27:45.948Z,77.30
2018-08-23T21:30:16.934Z,77.30
2018-08-23T21:32:45.648Z,77.30
2018-08-23T21:35:14.824Z,77.30
2018-08-23T21:37:44.820Z,77.20
2018-08-23T21:40:14.941Z,77.30
2018-08-23T21:42:43.461Z,77.40
2018-08-23T21:45:11.144Z,77.40
2018-08-23T21:47:38.817Z,77.40
2018-08-23T21:50:06.493Z,77.40
2018-08-23T21:52:34.246Z,77.50
2018-08-23T21:55:01.909Z,77.50
2018-08-23T21:57:29.584Z,77.40
2018-08-23T21:59:57.252Z,77.30
2018-08-23T22:02:24.924Z,77.40
2018-08-23T22:04:53.876Z,77.50
2018-08-23T22:07:21.572Z,77.40
2018-08-23T22:09:52.265Z,77.40
2018-08-23T22:12:21.352Z,77.40
2018-08-23T22:14:50.589Z,77.40
2018-08-23T22:17:20.413Z,77.40
2018-08-23T22:19:49.640Z,77.40
2018-08-23T22:22:18.532Z,77.40
2018-08-23T22:24:46.907Z,77.40
2018-08-23T22:27:15.583Z,77.40
2018-08-23T22:29:44.895Z,77.40
2018-08-23T22:32:13.366Z,77.50
2018-08-23T22:34:41.949Z,77.40
2018-08-23T22:37:10.528Z,77.40
2018-08-23T22:39:39.272Z,78.10
2018-08-23T22:42:07.941Z,77.40
2018-08-23T22:44:36.503Z,77.40
2018-08-23T22:47:05.137Z,77.50
2018-08-23T22:49:32.826Z,77.40
2018-08-23T22:52:01.383Z,77.40
2018-08-23T22:54:30.132Z,77.50
2018-08-23T22:56:58.684Z,77.50
2018-08-23T22:59:27.386Z,77.60
2018-08-23T23:01:56.085Z,77.60
2018-08-23T23:04:27.549Z,77.50
2018-08-23T23:06:55.431Z,77.40
2018-08-23T23:09:24.171Z,77.60
2018-08-23T23:11:51.841Z,77.50
2018-08-23T23:14:20.408Z,77.60
2018-08-23T23:16:53.539Z,77.50
2018-08-23T23:19:21.627Z,77.60
2018-08-23T23:21:50.179Z,77.60
2018-08-23T23:24:24.049Z,77.40
2018-08-23T23:26:52.772Z,77.60
2018-08-23T23:29:21.337Z,77.50
2018-08-23T23:31:50.029Z,77.40
2018-08-23T23:34:18.721Z,77.50
2018-08-23T23:36:48.285Z,77.50
2018-08-23T23:39:17.289Z,77.50
2018-08-23T23:41:45.868Z,77.40
2018-08-23T23:44:16.850Z,77.40
2018-08-23T23:46:47.757Z,77.40
2018-08-23T23:49:16.911Z,77.40
2018-08-23T23:51:45.488Z,77.40
2018-08-23T23:54:14.700Z,77.50
2018-08-23T23:56:45.239Z,77.50
2018-08-23T23:59:14.564Z,77.40
